createdAt,value
2018-05-16T00:32:35.900Z,94063.14
2018-05-16T00:47:37.691Z,94036.72
2018-05-16T01:02:34.833Z,94041.59
2018-05-16T01:17:34.827Z,94057.61
2018-05-16T01:32:34.147Z,94062.78
2018-05-16T01:47:34.976Z,94075.27
2018-05-16T02:02:37.326Z,94105.70
2018-05-16T02:17:34.939Z,94109.05
2018-05-16T02:32:37.344Z,94143.82
2018-05-16T02:47:36.336Z,94165.61
2018-05-16T03:02:36.353Z,94198.51
2018-05-16T03:17:34.665Z,94203.12
2018-05-16T03:32:35.030Z,94208.37
2018-05-16T03:47:36.672Z,94234.44
2018-05-16T04:02:46.707Z,94246.39
2018-05-16T04:17:34.983Z,94276.44
2018-05-16T04:32:35.247Z,94287.75
2018-05-16T04:47:36.846Z,94301.98
2018-05-16T05:02:37.194Z,94307.77
2018-05-16T05:17:35.012Z,94329.19
2018-05-16T05:32:35.494Z,94331.10
2018-05-16T05:47:34.614Z,94339.02
2018-05-16T06:02:34.472Z,94348.10
2018-05-16T06:17:34.504Z,94360.11
2018-05-16T06:32:34.633Z,94369.80
2018-05-16T06:47:34.675Z,94366.05
2018-05-16T07:02:34.242Z,94364.63
2018-05-16T07:17:34.262Z,94367.18
2018-05-16T07:32:34.756Z,94395.48
2018-05-16T07:47:35.108Z,94383.45
2018-05-16T08:02:34.907Z,94406.84
2018-05-16T08:17:34.979Z,94395.73
2018-05-16T08:32:37.091Z,94401.22
2018-05-16T08:47:36.342Z,94405.23
2018-05-16T09:02:34.551Z,94414.36
2018-05-16T09:17:34.828Z,94397.41
2018-05-16T09:32:34.623Z,94374.97
2018-05-16T09:47:36.610Z,94366.88
2018-05-16T10:02:36.529Z,94371.13
2018-05-16T10:17:34.523Z,94376.58
2018-05-16T10:32:37.822Z,94377.40
2018-05-16T10:47:35.036Z,94389.85
2018-05-16T11:02:36.885Z,94390.95
2018-05-16T11:17:34.928Z,94394.41
2018-05-16T11:32:36.145Z,94389.41
2018-05-16T11:47:40.419Z,94382.73
2018-05-16T12:02:35.131Z,94374.73
2018-05-16T12:17:35.125Z,94387.59
2018-05-16T12:32:37.426Z,94367.82
2018-05-16T12:47:36.407Z,94360.36
2018-05-16T13:02:34.526Z,94351.98
2018-05-16T13:17:34.435Z,94353.73
2018-05-16T13:32:34.764Z,94341.20
2018-05-16T13:47:37.724Z,94338.39
2018-05-16T14:02:34.695Z,94327.47
2018-05-16T14:17:37.674Z,94324.81
2018-05-16T14:32:35.045Z,94315.23
2018-05-16T14:47:35.127Z,94313.61
2018-05-16T15:02:35.657Z,94317.31
2018-05-16T15:17:34.571Z,94314.33
2018-05-16T15:32:34.314Z,94311.38
2018-05-16T15:47:37.120Z,94303.52
2018-05-16T16:02:36.368Z,94297.37
2018-05-16T16:17:34.181Z,94299.89
2018-05-16T16:32:34.526Z,94293.75
2018-05-16T16:47:36.507Z,94293.20
2018-05-16T17:02:34.818Z,94296.84
2018-05-16T17:17:34.343Z,94318.06
2018-05-16T17:32:34.893Z,94329.25
2018-05-16T17:47:36.828Z,94334.98
2018-05-16T18:02:39.096Z,94349.23
2018-05-16T18:17:35.583Z,94338.97
2018-05-16T18:32:35.386Z,94363.72
2018-05-16T18:47:40.589Z,94374.71
2018-05-16T19:32:41.303Z,94388.77
2018-05-16T19:47:45.094Z,94412.71
2018-05-16T20:02:37.556Z,94431.21
2018-05-16T20:32:34.775Z,94413.53
2018-05-16T20:47:34.938Z,94410.26
2018-05-16T21:02:36.829Z,94418.52
2018-05-16T21:17:34.631Z,94398.71
2018-05-16T21:32:37.212Z,94387.27
2018-05-16T21:47:33.991Z,94394.64
2018-05-16T22:02:34.247Z,94398.34
2018-05-16T22:17:36.956Z,94398.91
2018-05-16T22:32:42.046Z,94363.34
2018-05-16T22:47:36.644Z,94381.04
2018-05-16T23:02:37.439Z,94372.09
2018-05-16T23:17:36.243Z,94394.72
2018-05-16T23:32:34.738Z,94385.31
2018-05-16T23:47:34.594Z,94361.66
